createdAt,value
2023-07-16T00:00:55.379Z,7.10
2023-07-16T00:03:29.973Z,9.18
2023-07-16T00:06:05.827Z,7.47
2023-07-16T00:08:47.621Z,8.63
2023-07-16T00:11:28.354Z,8.57
2023-07-16T00:16:39.099Z,8.55
2023-07-16T00:19:22.710Z,7.93
2023-07-16T00:21:57.528Z,7.90
2023-07-16T00:24:29.047Z,9.07
2023-07-16T00:27:05.419Z,8.70
2023-07-16T00:29:40.686Z,8.20
2023-07-16T00:32:31.111Z,8.07
2023-07-16T00:37:55.246Z,8.38
2023-07-16T00:40:28.844Z,8.52
2023-07-16T00:43:04.935Z,9.43
2023-07-16T00:45:41.073Z,8.53
2023-07-16T00:48:26.388Z,8.20
2023-07-16T00:51:01.176Z,8.85
2023-07-16T00:53:39.300Z,9.20
2023-07-16T00:56:15.015Z,9.55
2023-07-16T00:58:50.921Z,9.43
2023-07-16T01:01:31.990Z,9.05
2023-07-16T01:04:11.528Z,9.77
2023-07-16T01:07:00.334Z,9.63
2023-07-16T01:09:47.351Z,9.38
2023-07-16T01:12:31.617Z,8.95
2023-07-16T01:15:19.824Z,9.65
2023-07-16T01:17:57.876Z,9.70
2023-07-16T01:20:46.050Z,9.43
2023-07-16T01:23:45.750Z,9.77
2023-07-16T01:26:45.802Z,10.35
2023-07-16T01:29:56.096Z,9.18
2023-07-16T01:32:32.240Z,9.63
2023-07-16T01:35:10.807Z,9.38
2023-07-16T01:37:47.592Z,9.55
2023-07-16T01:40:39.873Z,9.15
2023-07-16T01:43:17.759Z,10.32
2023-07-16T01:45:59.117Z,10.18
2023-07-16T01:48:45.446Z,9.52
2023-07-16T01:51:26.216Z,8.88
2023-07-16T01:56:40.642Z,9.85
2023-07-16T01:59:19.057Z,10.23
2023-07-16T02:01:52.878Z,9.02
2023-07-16T02:04:28.146Z,9.80
2023-07-16T02:06:59.427Z,8.27
2023-07-16T02:09:38.206Z,9.60
2023-07-16T02:12:13.729Z,10.73
2023-07-16T02:14:52.029Z,9.68
2023-07-16T02:17:34.053Z,9.68
2023-07-16T02:20:12.083Z,9.57
2023-07-16T02:22:53.228Z,9.77
2023-07-16T02:25:34.958Z,9.20
2023-07-16T02:28:21.684Z,10.13
2023-07-16T02:30:59.855Z,9.60
2023-07-16T02:33:46.023Z,9.38
2023-07-16T02:36:41.440Z,9.52
2023-07-16T02:39:14.374Z,9.02
2023-07-16T02:42:05.650Z,9.68
2023-07-16T02:44:43.394Z,9.77
2023-07-16T02:47:21.083Z,8.50
2023-07-16T02:50:06.966Z,10.07
2023-07-16T02:52:49.511Z,9.88
2023-07-16T02:55:28.382Z,10.27
2023-07-16T02:58:15.699Z,9.70
2023-07-16T03:00:54.302Z,10.02
2023-07-16T03:03:35.412Z,9.65
2023-07-16T03:06:27.064Z,9.27
2023-07-16T03:09:06.812Z,10.00
2023-07-16T03:11:37.968Z,10.05
2023-07-16T03:14:12.332Z,10.70
2023-07-16T03:16:55.616Z,9.55
2023-07-16T03:19:36.951Z,10.30
2023-07-16T03:22:14.343Z,10.73
2023-07-16T03:24:53.765Z,11.32
2023-07-16T03:27:32.944Z,10.13
2023-07-16T03:30:11.146Z,11.00
2023-07-16T03:32:53.341Z,9.65
2023-07-16T03:35:45.579Z,10.95
2023-07-16T03:38:30.864Z,10.30
2023-07-16T03:41:12.386Z,10.98
2023-07-16T03:43:53.768Z,9.95
2023-07-16T03:46:34.673Z,10.23
2023-07-16T03:49:17.925Z,10.40
2023-07-16T03:51:55.611Z,10.50
2023-07-16T03:54:36.124Z,10.10
2023-07-16T03:57:13.862Z,10.27
2023-07-16T03:59:50.282Z,10.07
2023-07-16T04:02:25.382Z,10.48
2023-07-16T04:05:12.304Z,10.20
2023-07-16T04:07:49.272Z,11.32
2023-07-16T04:10:35.155Z,10.48
2023-07-16T04:13:11.298Z,11.70
2023-07-16T04:16:01.020Z,11.18
2023-07-16T04:18:35.565Z,11.68
2023-07-16T04:21:10.855Z,10.75
2023-07-16T04:23:43.754Z,10.40
2023-07-16T04:26:23.590Z,10.35
2023-07-16T04:29:03.219Z,11.10
2023-07-16T04:31:41.394Z,11.05
2023-07-16T04:34:13.022Z,12.00
2023-07-16T04:36:47.330Z,10.15
2023-07-16T04:39:28.070Z,9.75
2023-07-16T04:44:44.663Z,9.43
2023-07-16T04:47:19.749Z,9.73
2023-07-16T04:49:56.325Z,8.77
2023-07-16T04:52:31.879Z,10.05
2023-07-16T04:55:21.553Z,9.82
2023-07-16T04:57:59.292Z,10.38
2023-07-16T05:00:33.849Z,9.70
2023-07-16T05:03:13.822Z,10.77
2023-07-16T05:05:55.493Z,9.40
2023-07-16T05:08:31.734Z,10.32
2023-07-16T05:11:21.922Z,9.45
2023-07-16T05:14:24.018Z,10.88
2023-07-16T05:17:04.225Z,10.70
2023-07-16T05:19:44.320Z,10.35
2023-07-16T05:22:21.102Z,10.75
2023-07-16T05:25:03.998Z,9.88
2023-07-16T05:27:42.563Z,10.02
2023-07-16T05:30:20.416Z,8.00
2023-07-16T05:33:03.090Z,11.82
2023-07-16T05:35:46.344Z,11.10
2023-07-16T05:38:20.845Z,10.95
2023-07-16T05:40:57.351Z,10.80
2023-07-16T05:43:32.405Z,11.10
2023-07-16T05:46:22.126Z,10.75
2023-07-16T05:49:05.597Z,10.55
2023-07-16T05:51:51.842Z,9.63
2023-07-16T05:54:34.488Z,9.82
2023-07-16T05:57:18.149Z,10.02
2023-07-16T06:00:07.393Z,10.23
2023-07-16T06:03:05.745Z,9.98
2023-07-16T06:05:38.898Z,9.80
2023-07-16T06:08:21.195Z,10.88
2023-07-16T06:11:03.651Z,10.25
2023-07-16T06:16:20.581Z,9.85
2023-07-16T06:19:01.337Z,10.85
2023-07-16T06:21:44.327Z,9.35
2023-07-16T06:24:26.633Z,10.32
2023-07-16T06:26:57.539Z,9.55
2023-07-16T06:29:30.720Z,9.65
2023-07-16T06:32:15.745Z,9.05
2023-07-16T06:34:59.019Z,8.88
2023-07-16T06:37:49.840Z,8.63
2023-07-16T06:43:15.458Z,6.68
2023-07-16T06:45:58.816Z,6.57
2023-07-16T06:48:38.156Z,7.18
2023-07-16T06:51:22.313Z,7.45
2023-07-16T06:53:58.850Z,6.13
2023-07-16T06:56:41.925Z,6.07
2023-07-16T06:59:29.264Z,6.40
2023-07-16T07:02:07.279Z,6.38
2023-07-16T07:04:42.175Z,6.55
2023-07-16T07:07:22.247Z,6.47
2023-07-16T07:09:57.792Z,6.28
2023-07-16T07:12:41.988Z,7.40
2023-07-16T07:15:16.896Z,6.40
2023-07-16T07:17:57.741Z,7.20
2023-07-16T07:20:32.791Z,6.45
2023-07-16T07:23:11.366Z,10.90
2023-07-16T07:25:50.570Z,8.48
2023-07-16T07:28:31.615Z,6.63
2023-07-16T07:31:08.053Z,6.25
2023-07-16T07:33:43.689Z,6.05
2023-07-16T07:36:16.699Z,6.63
2023-07-16T07:38:55.320Z,6.50
2023-07-16T07:41:30.154Z,7.07
2023-07-16T07:44:09.683Z,6.25
2023-07-16T07:46:49.072Z,5.95
2023-07-16T07:49:33.308Z,5.97
2023-07-16T07:52:16.565Z,6.47
2023-07-16T07:55:03.518Z,6.45
2023-07-16T07:57:42.884Z,6.03
2023-07-16T08:00:30.250Z,5.68
2023-07-16T08:03:12.132Z,5.57
2023-07-16T08:05:47.945Z,6.53
2023-07-16T08:08:22.688Z,7.40
2023-07-16T08:11:01.751Z,6.93
2023-07-16T08:13:43.628Z,7.35
2023-07-16T08:16:24.010Z,6.28
2023-07-16T08:19:02.268Z,7.45
2023-07-16T08:21:47.101Z,7.05
2023-07-16T08:24:28.137Z,6.93
2023-07-16T08:27:16.512Z,6.68
2023-07-16T08:29:58.082Z,6.45
2023-07-16T08:32:38.595Z,6.05
2023-07-16T08:35:19.784Z,7.10
2023-07-16T08:38:05.426Z,6.25
2023-07-16T08:40:49.990Z,6.70
2023-07-16T08:43:37.278Z,6.60
2023-07-16T08:46:11.872Z,6.35
2023-07-16T08:48:47.105Z,6.38
2023-07-16T08:51:23.536Z,6.60
2023-07-16T08:54:18.681Z,6.50
2023-07-16T08:56:55.402Z,6.68
2023-07-16T08:59:41.920Z,7.00
2023-07-16T09:02:25.143Z,6.47
2023-07-16T09:05:07.234Z,6.25
2023-07-16T09:07:54.335Z,7.45
2023-07-16T09:10:35.183Z,6.53
2023-07-16T09:13:10.801Z,6.90
2023-07-16T09:15:47.572Z,6.88
2023-07-16T09:18:29.757Z,7.50
2023-07-16T09:21:16.064Z,7.28
2023-07-16T09:23:58.039Z,6.77
2023-07-16T09:26:31.363Z,7.10
2023-07-16T09:29:12.789Z,7.75
2023-07-16T09:32:13.686Z,7.13
2023-07-16T09:34:57.025Z,7.15
2023-07-16T09:37:37.076Z,6.72
2023-07-16T09:40:20.162Z,6.30
2023-07-16T09:42:57.149Z,6.97
2023-07-16T09:45:40.585Z,7.13
2023-07-16T09:48:23.471Z,7.30
2023-07-16T09:51:09.389Z,6.82
2023-07-16T09:53:52.041Z,7.03
2023-07-16T09:56:27.646Z,7.72
2023-07-16T09:59:02.576Z,8.05
2023-07-16T10:01:49.949Z,7.13
2023-07-16T10:04:46.874Z,7.43
2023-07-16T10:07:28.828Z,8.05
2023-07-16T10:10:10.847Z,8.00
2023-07-16T10:12:48.563Z,7.65
2023-07-16T10:15:37.324Z,9.45
2023-07-16T10:18:14.169Z,7.85
2023-07-16T10:20:59.644Z,8.73
2023-07-16T10:23:56.925Z,8.77
2023-07-16T10:26:43.711Z,8.50
2023-07-16T10:29:23.259Z,22.25
2023-07-16T10:32:01.872Z,9.63
2023-07-16T10:34:38.262Z,8.02
2023-07-16T10:37:20.673Z,8.40
2023-07-16T10:39:59.598Z,7.72
2023-07-16T10:42:37.164Z,8.10
2023-07-16T10:45:14.792Z,8.35
2023-07-16T10:48:00.641Z,7.97
2023-07-16T10:50:32.398Z,9.32
2023-07-16T10:53:20.935Z,8.75
2023-07-16T10:56:04.857Z,8.90
2023-07-16T10:58:40.592Z,9.38
2023-07-16T11:01:18.606Z,8.75
2023-07-16T11:03:56.292Z,8.70
2023-07-16T11:06:52.538Z,9.10
2023-07-16T11:09:34.864Z,9.15
2023-07-16T11:12:18.217Z,10.35
2023-07-16T11:14:56.621Z,8.77
2023-07-16T11:17:39.066Z,9.70
2023-07-16T11:20:29.932Z,9.40
2023-07-16T11:23:08.366Z,11.02
2023-07-16T11:25:51.405Z,11.38
2023-07-16T11:28:29.899Z,9.63
2023-07-16T11:31:03.821Z,10.55
2023-07-16T11:33:50.102Z,11.60
2023-07-16T11:36:31.432Z,10.98
2023-07-16T11:39:13.592Z,11.45
2023-07-16T11:42:06.663Z,10.93
2023-07-16T11:44:47.242Z,11.35
2023-07-16T11:47:29.784Z,10.77
2023-07-16T11:50:03.103Z,10.85
2023-07-16T11:52:38.478Z,10.52
2023-07-16T11:55:31.175Z,11.60
2023-07-16T11:58:22.898Z,12.27
2023-07-16T12:00:55.197Z,10.05
2023-07-16T12:03:31.769Z,11.40
2023-07-16T12:06:06.888Z,10.43
2023-07-16T12:08:45.578Z,10.73
2023-07-16T12:11:28.615Z,10.95
2023-07-16T12:14:04.289Z,11.30
2023-07-16T12:16:45.610Z,11.70
2023-07-16T12:19:22.380Z,12.60
2023-07-16T12:22:14.487Z,11.38
2023-07-16T12:24:53.839Z,11.10
2023-07-16T12:27:36.769Z,10.93
2023-07-16T12:30:16.888Z,10.90
2023-07-16T12:35:30.174Z,9.90
2023-07-16T12:38:10.969Z,10.10
2023-07-16T12:43:44.574Z,9.93
2023-07-16T12:46:27.778Z,9.40
2023-07-16T12:49:15.968Z,10.00
2023-07-16T12:51:50.890Z,10.32
2023-07-16T12:54:33.537Z,12.88
2023-07-16T12:57:15.634Z,10.18
2023-07-16T13:02:51.161Z,9.00
2023-07-16T13:05:27.255Z,9.60
2023-07-16T13:08:07.054Z,10.18
2023-07-16T13:10:42.539Z,9.95
2023-07-16T13:13:33.937Z,11.30
2023-07-16T13:16:09.032Z,10.25
2023-07-16T13:18:48.728Z,8.95
2023-07-16T13:21:28.432Z,9.23
2023-07-16T13:24:12.483Z,9.57
2023-07-16T13:26:53.469Z,8.73
2023-07-16T13:29:32.015Z,9.13
2023-07-16T13:32:09.984Z,8.13
2023-07-16T13:34:58.556Z,9.55
2023-07-16T13:40:24.277Z,8.98
2023-07-16T13:43:01.283Z,9.38
2023-07-16T13:45:56.597Z,8.50
2023-07-16T13:48:56.868Z,9.23
2023-07-16T13:51:44.154Z,9.20
2023-07-16T13:54:22.796Z,9.05
2023-07-16T13:56:56.108Z,11.27
2023-07-16T13:59:29.970Z,12.40
2023-07-16T14:02:09.635Z,13.40
2023-07-16T14:07:27.552Z,13.65
2023-07-16T14:10:14.800Z,14.73
2023-07-16T14:12:54.516Z,13.65
2023-07-16T14:18:12.974Z,15.02
2023-07-16T14:20:47.906Z,15.65
2023-07-16T14:23:28.436Z,16.13
2023-07-16T14:26:06.080Z,14.38
2023-07-16T14:28:50.450Z,15.73
2023-07-16T14:31:27.157Z,14.40
2023-07-16T14:34:11.761Z,14.68
2023-07-16T14:36:50.598Z,14.73
2023-07-16T14:39:31.090Z,14.98
2023-07-16T14:42:10.551Z,13.32
2023-07-16T14:44:54.238Z,14.55
2023-07-16T14:47:37.188Z,14.50
2023-07-16T14:50:24.995Z,11.50
2023-07-16T14:53:08.019Z,12.15
2023-07-16T14:56:04.067Z,12.95
2023-07-16T14:58:39.234Z,14.18
2023-07-16T15:01:15.306Z,13.02
2023-07-16T15:03:50.592Z,13.07
2023-07-16T15:06:28.104Z,13.32
2023-07-16T15:09:06.664Z,13.93
2023-07-16T15:11:55.796Z,13.65
2023-07-16T15:14:28.481Z,14.47
2023-07-16T15:17:06.416Z,13.60
2023-07-16T15:19:49.024Z,15.13
2023-07-16T15:22:29.249Z,15.52
2023-07-16T15:25:10.028Z,15.57
2023-07-16T15:27:49.386Z,15.63
2023-07-16T15:30:23.838Z,15.02
2023-07-16T15:33:09.098Z,14.65
2023-07-16T15:35:59.741Z,14.77
2023-07-16T15:38:36.264Z,15.05
2023-07-16T15:44:29.789Z,15.20
2023-07-16T15:47:08.811Z,14.35
2023-07-16T15:52:19.935Z,16.08
2023-07-16T15:54:53.114Z,15.55
2023-07-16T15:57:29.051Z,13.73
2023-07-16T16:00:14.233Z,14.35
2023-07-16T16:03:00.640Z,14.65
2023-07-16T16:05:40.618Z,13.68
2023-07-16T16:08:38.425Z,14.77
2023-07-16T16:11:11.630Z,14.15
2023-07-16T16:13:52.537Z,14.98
2023-07-16T16:16:37.030Z,13.60
2023-07-16T16:19:15.416Z,14.00
2023-07-16T16:22:02.260Z,14.20
2023-07-16T16:24:41.504Z,16.50
2023-07-16T16:27:20.643Z,21.13
2023-07-16T16:29:53.421Z,14.77
2023-07-16T16:32:38.096Z,14.00
2023-07-16T16:35:18.179Z,13.88
2023-07-16T16:38:07.274Z,12.60
2023-07-16T16:40:40.099Z,11.23
2023-07-16T16:43:23.084Z,11.75
2023-07-16T16:45:57.378Z,12.52
2023-07-16T16:48:43.609Z,10.82
2023-07-16T16:51:26.635Z,11.15
2023-07-16T16:54:18.230Z,10.10
2023-07-16T16:57:04.542Z,8.52
2023-07-16T16:59:44.866Z,7.88
2023-07-16T17:05:26.166Z,7.43
2023-07-16T17:08:02.407Z,7.32
2023-07-16T17:10:49.112Z,7.75
2023-07-16T17:13:23.813Z,6.85
2023-07-16T17:15:59.126Z,7.70
2023-07-16T17:18:33.795Z,6.65
2023-07-16T17:21:13.907Z,7.78
2023-07-16T17:23:54.131Z,7.65
2023-07-16T17:29:13.302Z,7.22
2023-07-16T17:31:51.369Z,6.55
2023-07-16T17:34:27.098Z,7.32
2023-07-16T17:37:06.063Z,7.35
2023-07-16T17:39:53.303Z,7.25
2023-07-16T17:42:26.101Z,7.32
2023-07-16T17:45:05.646Z,8.25
2023-07-16T17:47:40.631Z,8.25
2023-07-16T17:50:21.317Z,8.07
2023-07-16T17:53:13.717Z,9.05
2023-07-16T17:55:48.349Z,8.73
2023-07-16T17:58:31.149Z,8.35
2023-07-16T18:01:19.425Z,13.93
2023-07-16T18:04:04.623Z,9.40
2023-07-16T18:06:42.241Z,8.25
2023-07-16T18:09:37.975Z,8.45
2023-07-16T18:12:16.916Z,7.55
2023-07-16T18:14:55.885Z,7.72
2023-07-16T18:17:33.104Z,8.30
2023-07-16T18:20:08.911Z,7.43
2023-07-16T18:22:49.575Z,6.78
2023-07-16T18:25:31.005Z,7.47
2023-07-16T18:28:17.119Z,6.60
2023-07-16T18:30:50.104Z,6.93
2023-07-16T18:33:27.795Z,6.97
2023-07-16T18:36:03.636Z,8.00
2023-07-16T18:38:41.136Z,7.88
2023-07-16T18:44:06.647Z,7.97
2023-07-16T18:46:46.439Z,7.78
2023-07-16T18:49:35.777Z,7.15
2023-07-16T18:52:10.559Z,7.75
2023-07-16T18:54:54.474Z,7.65
2023-07-16T18:57:35.467Z,7.15
2023-07-16T19:00:23.996Z,7.47
2023-07-16T19:03:57.832Z,8.13
2023-07-16T19:06:29.431Z,7.10
2023-07-16T19:09:08.872Z,8.02
2023-07-16T19:11:45.157Z,8.05
2023-07-16T19:14:28.343Z,8.55
2023-07-16T19:17:06.013Z,8.45
2023-07-16T19:19:45.211Z,8.10
2023-07-16T19:22:18.184Z,8.63
2023-07-16T19:25:00.693Z,7.93
2023-07-16T19:27:38.614Z,8.25
2023-07-16T19:30:33.174Z,8.48
2023-07-16T19:33:11.685Z,9.50
2023-07-16T19:36:05.070Z,9.63
2023-07-16T19:38:55.525Z,8.68
2023-07-16T19:41:37.054Z,8.02
2023-07-16T19:44:17.715Z,9.00
2023-07-16T19:47:08.931Z,8.07
2023-07-16T19:49:46.042Z,7.97
2023-07-16T19:52:20.115Z,7.93
2023-07-16T19:54:50.440Z,7.65
2023-07-16T19:57:25.639Z,9.35
2023-07-16T20:00:05.376Z,8.73
2023-07-16T20:03:08.861Z,8.80
2023-07-16T20:05:50.271Z,9.00
2023-07-16T20:08:28.943Z,7.80
2023-07-16T20:11:09.924Z,7.82
2023-07-16T20:13:42.643Z,8.45
2023-07-16T20:16:19.674Z,7.97
2023-07-16T20:18:57.406Z,7.88
2023-07-16T20:21:28.084Z,9.07
2023-07-16T20:24:01.798Z,8.82
2023-07-16T20:26:44.716Z,8.75
2023-07-16T20:29:18.227Z,8.32
2023-07-16T20:31:54.044Z,8.05
2023-07-16T20:34:48.028Z,8.65
2023-07-16T20:37:27.216Z,7.85
2023-07-16T20:40:03.223Z,9.05
2023-07-16T20:42:42.872Z,9.07
2023-07-16T20:45:35.013Z,9.00
2023-07-16T20:48:10.788Z,7.75
2023-07-16T20:51:00.264Z,9.02
2023-07-16T20:53:36.862Z,8.20
2023-07-16T20:56:24.093Z,9.38
2023-07-16T20:59:19.218Z,9.13
2023-07-16T21:02:03.586Z,8.18
2023-07-16T21:04:42.641Z,9.20
2023-07-16T21:07:22.214Z,8.10
2023-07-16T21:10:00.332Z,9.13
2023-07-16T21:12:45.410Z,9.45
2023-07-16T21:15:25.867Z,9.15
2023-07-16T21:18:02.041Z,9.68
2023-07-16T21:20:42.932Z,9.20
2023-07-16T21:26:08.770Z,8.95
2023-07-16T21:28:47.085Z,8.98
2023-07-16T21:31:34.830Z,9.65
2023-07-16T21:36:54.670Z,9.75
2023-07-16T21:39:35.236Z,10.80
2023-07-16T21:42:16.512Z,10.35
2023-07-16T21:44:59.589Z,9.60
2023-07-16T21:47:37.298Z,9.75
2023-07-16T21:50:15.930Z,9.32
2023-07-16T21:53:01.183Z,9.60
2023-07-16T21:55:52.338Z,10.02
2023-07-16T21:58:30.269Z,10.77
2023-07-16T22:01:06.445Z,9.25
2023-07-16T22:03:46.607Z,9.93
2023-07-16T22:06:31.232Z,10.75
2023-07-16T22:09:09.139Z,10.30
2023-07-16T22:11:48.867Z,9.90
2023-07-16T22:14:35.461Z,9.63
2023-07-16T22:17:12.825Z,11.20
2023-07-16T22:19:48.454Z,12.57
2023-07-16T22:22:30.317Z,15.43
2023-07-16T22:25:15.330Z,16.17
2023-07-16T22:27:59.898Z,20.15
2023-07-16T22:30:35.540Z,23.63
2023-07-16T22:33:10.914Z,21.42
2023-07-16T22:35:54.683Z,15.45
2023-07-16T22:38:36.660Z,15.07
2023-07-16T22:41:16.313Z,12.55
2023-07-16T22:43:56.980Z,13.65
2023-07-16T22:46:35.945Z,12.98
2023-07-16T22:49:19.698Z,12.95
2023-07-16T22:51:58.724Z,12.35
2023-07-16T22:54:35.245Z,12.00
2023-07-16T22:57:16.313Z,12.00
2023-07-16T22:59:57.599Z,12.43
2023-07-16T23:02:30.127Z,12.20
2023-07-16T23:05:24.526Z,12.48
2023-07-16T23:08:08.752Z,13.23
2023-07-16T23:10:47.362Z,13.10
2023-07-16T23:13:24.852Z,11.85
2023-07-16T23:16:08.000Z,12.75
2023-07-16T23:18:50.035Z,12.93
2023-07-16T23:21:25.275Z,12.95
2023-07-16T23:24:00.207Z,12.05
2023-07-16T23:26:40.817Z,12.50
2023-07-16T23:29:19.876Z,13.50
2023-07-16T23:32:02.631Z,13.23
2023-07-16T23:34:41.906Z,13.52
2023-07-16T23:37:15.842Z,12.02
2023-07-16T23:39:53.443Z,13.65
2023-07-16T23:42:36.108Z,12.60
2023-07-16T23:45:32.611Z,12.13
2023-07-16T23:48:16.190Z,13.55
2023-07-16T23:50:52.040Z,12.70
2023-07-16T23:53:34.036Z,14.05
2023-07-16T23:56:04.300Z,13.40
2023-07-16T23:58:37.224Z,13.50
